Time;durP1;ratioP1;P1;durP2;ratioP2;P2;SDS_P1;SDS_P2;PMS_P1;PMS_P2;Temp;Humidity;BMP_temperature;BMP_pressure;BME280_temperature;BME280_humidity;BME280_pressure;Samples;Min_cycle;Max_cycle;Signal;HPM_P1;HPM_P2
2021/05/22 00:00:19;;;;;;;0.00;0.00;;;16.30;71.40;;;;;;4192137;28;20045;-46
2021/05/22 00:02:40;;;;;;;0.00;0.00;;;16.30;71.40;;;;;;4191628;28;20110;-47
2021/05/22 00:05:02;;;;;;;0.00;0.00;;;16.30;71.40;;;;;;4191842;28;20075;-47
2021/05/22 00:07:24;;;;;;;0.00;0.00;;;16.30;71.40;;;;;;4191497;28;20083;-51
2021/05/22 00:09:46;;;;;;;0.00;0.00;;;16.30;71.30;;;;;;4191491;28;20062;-46
2021/05/22 00:12:08;;;;;;;0.00;0.00;;;16.30;71.30;;;;;;4191525;28;20055;-46
2021/05/22 00:14:31;;;;;;;0.08;0.08;;;16.30;71.40;;;;;;4191555;28;20054;-49
2021/05/22 00:16:53;;;;;;;0.00;0.00;;;16.30;72.30;;;;;;4191879;28;20130;-51
2021/05/22 00:19:17;;;;;;;0.90;0.90;;;16.30;71.30;;;;;;4191444;28;20056;-52
2021/05/22 00:21:39;;;;;;;0.25;0.25;;;16.30;71.40;;;;;;4191625;28;20117;-47
2021/05/22 00:24:01;;;;;;;0.00;0.00;;;16.30;71.50;;;;;;4191117;28;20061;-47
2021/05/22 00:26:22;;;;;;;0.00;0.00;;;16.30;71.30;;;;;;4191140;28;20048;-45
2021/05/22 00:28:44;;;;;;;0.00;0.00;;;16.20;71.20;;;;;;4191612;28;20048;-45
2021/05/22 00:31:06;;;;;;;;;;;16.20;71.20;;;;;;4191586;28;20048;-47
2021/05/22 00:33:27;;;;;;;0.00;0.00;;;16.20;71.20;;;;;;4191657;28;20027;-49
2021/05/22 00:35:50;;;;;;;0.00;0.00;;;16.20;71.20;;;;;;4191727;28;20063;-46
2021/05/22 00:38:12;;;;;;;0.00;0.00;;;16.20;71.40;;;;;;4190388;28;20611;-45
2021/05/22 00:40:33;;;;;;;0.00;0.00;;;16.20;71.40;;;;;;4212286;28;20504;-46
2021/05/22 00:42:55;;;;;;;0.00;0.00;;;16.20;71.40;;;;;;4191611;28;20079;-49
2021/05/22 00:45:17;;;;;;;;;;;16.20;71.20;;;;;;4189958;28;20098;-51
2021/05/22 00:47:41;;;;;;;0.00;0.00;;;16.20;71.20;;;;;;4191339;28;19927;-48
2021/05/22 00:50:05;;;;;;;0.00;0.00;;;16.20;71.20;;;;;;4191291;28;20131;-46
2021/05/22 00:52:27;;;;;;;0.00;0.00;;;16.20;71.20;;;;;;4191006;28;20059;-47
2021/05/22 00:54:49;;;;;;;0.00;0.00;;;16.20;71.10;;;;;;4190781;28;20129;-46
2021/05/22 00:57:11;;;;;;;1.35;0.95;;;16.20;71.10;;;;;;4190901;28;20486;-48
2021/05/22 00:59:33;;;;;;;0.00;0.00;;;16.20;71.10;;;;;;4190942;28;20048;-49
2021/05/22 01:01:55;;;;;;;0.00;0.00;;;16.20;71.10;;;;;;4191141;28;20055;-46
2021/05/22 01:04:20;;;;;;;0.52;0.52;;;16.20;71.20;;;;;;4191177;28;20068;-47
2021/05/22 01:06:41;;;;;;;0.00;0.00;;;16.20;71.20;;;;;;4191376;28;20056;-47
2021/05/22 01:09:07;;;;;;;;;;;16.10;71.20;;;;;;4190783;28;20071;-47
2021/05/22 01:11:32;;;;;;;0.00;0.00;;;16.20;71.30;;;;;;4190709;28;19955;-46
2021/05/22 01:13:58;;;;;;;0.00;0.00;;;16.10;71.20;;;;;;4191422;28;20550;-46
2021/05/22 01:16:21;;;;;;;0.47;0.47;;;16.10;71.20;;;;;;4190877;28;20151;-47
2021/05/22 01:18:43;;;;;;;0.10;0.10;;;16.10;71.20;;;;;;4174389;28;20055;-48
2021/05/22 01:21:07;;;;;;;0.00;0.00;;;16.10;71.30;;;;;;4174197;28;20419;-46
2021/05/22 01:23:33;;;;;;;0.52;0.52;;;16.10;71.30;;;;;;4179374;28;20126;-48
2021/05/22 01:25:56;;;;;;;0.00;0.00;;;16.10;71.30;;;;;;4190888;28;20071;-47
2021/05/22 01:28:18;;;;;;;0.00;0.00;;;16.10;71.40;;;;;;4190855;28;20048;-46
2021/05/22 01:30:41;;;;;;;0.20;0.20;;;16.10;71.40;;;;;;4191016;28;20112;-47
2021/05/22 01:33:04;;;;;;;0.00;0.00;;;16.10;71.30;;;;;;4190655;28;20410;-49
2021/05/22 01:35:25;;;;;;;0.00;0.00;;;16.10;71.40;;;;;;4190958;28;20124;-46
2021/05/22 01:37:47;;;;;;;0.00;0.00;;;16.10;71.30;;;;;;4191094;28;20045;-46
2021/05/22 01:40:10;;;;;;;0.00;0.00;;;16.10;71.50;;;;;;4191127;28;20051;-45
2021/05/22 01:42:32;;;;;;;0.10;0.10;;;16.10;71.40;;;;;;4190791;28;20059;-45
2021/05/22 01:44:54;;;;;;;0.08;0.08;;;16.10;71.50;;;;;;4189504;28;20044;-48
2021/05/22 01:47:18;;;;;;;0.00;0.00;;;16.10;71.50;;;;;;4190528;28;20502;-51
2021/05/22 01:49:40;;;;;;;1.75;1.35;;;16.00;71.40;;;;;;4191452;28;20068;-50
2021/05/22 01:52:03;;;;;;;0.00;0.00;;;16.10;71.40;;;;;;4194006;28;20592;-46
2021/05/22 01:54:26;;;;;;;0.00;0.00;;;16.00;71.30;;;;;;4193746;28;20129;-49
2021/05/22 01:56:49;;;;;;;0.00;0.00;;;16.00;71.30;;;;;;4193928;28;20075;-47
2021/05/22 01:59:14;;;;;;;0.00;0.00;;;16.00;71.30;;;;;;4193715;28;20058;-51
2021/05/22 02:01:36;;;;;;;0.00;0.00;;;16.00;71.40;;;;;;4193985;28;20105;-53
2021/05/22 02:04:00;;;;;;;;;;;16.00;71.20;;;;;;4194117;28;20045;-50
2021/05/22 02:06:24;;;;;;;0.00;0.00;;;16.00;71.40;;;;;;4193973;28;19928;-50
2021/05/22 02:08:48;;;;;;;0.00;0.00;;;16.00;71.40;;;;;;4193560;28;20067;-48
2021/05/22 02:11:10;;;;;;;0.00;0.00;;;16.00;71.40;;;;;;4178141;28;20048;-52
2021/05/22 02:13:32;;;;;;;0.00;0.00;;;16.00;71.40;;;;;;4177175;28;20057;-47
2021/05/22 02:15:57;;;;;;;0.45;0.45;;;16.00;71.40;;;;;;4176861;28;20070;-51
2021/05/22 02:18:20;;;;;;;0.25;0.25;;;16.00;71.40;;;;;;4177324;28;20061;-48
2021/05/22 02:20:42;;;;;;;0.20;0.20;;;16.00;71.40;;;;;;4177267;28;20579;-46
2021/05/22 02:23:05;;;;;;;0.00;0.00;;;16.00;71.40;;;;;;4177131;28;20048;-51
2021/05/22 02:25:28;;;;;;;0.57;0.57;;;16.00;71.40;;;;;;4183975;28;20067;-48
2021/05/22 02:27:50;;;;;;;0.00;0.00;;;16.00;71.40;;;;;;4193493;28;20045;-49
2021/05/22 02:30:16;;;;;;;0.80;0.80;;;15.90;71.30;;;;;;4193618;28;20048;-47
2021/05/22 02:32:40;;;;;;;0.00;0.00;;;15.90;71.30;;;;;;4193304;28;20183;-53
2021/05/22 02:35:04;;;;;;;0.00;0.00;;;15.90;71.30;;;;;;4192395;28;20491;-52
2021/05/22 02:37:30;;;;;;;0.00;0.00;;;15.90;71.40;;;;;;4193435;28;20044;-47
2021/05/22 02:39:56;;;;;;;0.00;0.00;;;15.90;71.50;;;;;;4193103;28;20414;-50
2021/05/22 02:42:20;;;;;;;0.17;0.17;;;15.90;71.50;;;;;;4193126;28;20156;-45
2021/05/22 02:44:43;;;;;;;0.00;0.00;;;15.90;71.60;;;;;;4193019;28;20195;-48
2021/05/22 02:47:06;;;;;;;0.60;0.60;;;15.90;71.70;;;;;;4193058;28;20419;-49
2021/05/22 02:49:30;;;;;;;0.00;0.00;;;15.90;71.50;;;;;;4193076;28;20052;-51
2021/05/22 02:51:54;;;;;;;0.00;0.00;;;15.90;71.60;;;;;;4193241;28;20225;-50
2021/05/22 02:54:17;;;;;;;0.03;0.03;;;15.90;71.70;;;;;;4192842;28;20503;-48
2021/05/22 02:56:40;;;;;;;0.00;0.00;;;15.90;71.80;;;;;;4193152;28;20053;-47
2021/05/22 02:59:04;;;;;;;0.00;0.00;;;15.90;71.80;;;;;;4193296;28;20064;-47
2021/05/22 03:01:26;;;;;;;0.00;0.00;;;15.90;71.80;;;;;;4192430;28;20068;-46
2021/05/22 03:03:48;;;;;;;0.00;0.00;;;15.90;71.80;;;;;;4192726;28;20113;-46
2021/05/22 03:06:11;;;;;;;0.47;0.47;;;15.90;71.80;;;;;;4193015;28;20056;-45
2021/05/22 03:08:42;;;;;;;0.08;0.08;;;15.90;71.90;;;;;;4192425;28;20114;-49
2021/05/22 03:11:04;;;;;;;0.00;0.00;;;15.90;72.00;;;;;;4191621;28;20048;-46
2021/05/22 03:13:25;;;;;;;0.00;0.00;;;15.90;71.90;;;;;;4192315;28;20114;-47
2021/05/22 03:15:47;;;;;;;0.00;0.00;;;15.90;72.00;;;;;;4192660;28;20048;-47
2021/05/22 03:18:09;;;;;;;0.00;0.00;;;15.90;72.00;;;;;;4192654;28;20060;-45
2021/05/22 03:20:31;;;;;;;0.00;0.00;;;15.90;72.10;;;;;;4192685;28;20052;-45
2021/05/22 03:22:54;;;;;;;0.00;0.00;;;15.90;72.00;;;;;;4192327;28;20160;-46
2021/05/22 03:25:16;;;;;;;0.00;0.00;;;15.90;72.00;;;;;;4192503;28;20051;-47
2021/05/22 03:27:38;;;;;;;0.17;0.17;;;15.90;72.10;;;;;;4192415;28;20140;-48
2021/05/22 03:29:59;;;;;;;0.00;0.00;;;15.90;72.10;;;;;;4192451;28;20125;-46
2021/05/22 03:32:21;;;;;;;0.00;0.00;;;15.90;72.00;;;;;;4192606;28;20113;-46
2021/05/22 03:34:43;;;;;;;0.00;0.00;;;15.90;72.10;;;;;;4192136;28;20048;-45
2021/05/22 03:37:05;;;;;;;0.00;0.00;;;15.90;72.10;;;;;;4192208;28;20101;-48
2021/05/22 03:39:27;;;;;;;0.25;0.25;;;15.80;72.10;;;;;;4191982;28;20135;-46
2021/05/22 03:41:49;;;;;;;0.00;0.00;;;15.80;72.10;;;;;;4176044;28;20056;-45
2021/05/22 03:44:10;;;;;;;0.00;0.00;;;15.80;72.00;;;;;;4175738;28;20052;-45
2021/05/22 03:46:32;;;;;;;0.00;0.00;;;15.80;72.10;;;;;;4175952;28;20063;-47
2021/05/22 03:48:54;;;;;;;0.00;0.00;;;15.80;72.20;;;;;;4186164;28;20048;-46
2021/05/22 03:51:15;;;;;;;0.00;0.00;;;15.80;72.10;;;;;;4192113;28;20454;-46
2021/05/22 03:53:37;;;;;;;0.00;0.00;;;15.80;72.20;;;;;;4191728;28;20048;-45
2021/05/22 03:55:59;;;;;;;0.00;0.00;;;15.80;72.30;;;;;;4191790;28;20468;-45
2021/05/22 03:58:21;;;;;;;1.20;0.52;;;15.80;72.30;;;;;;4191893;28;20603;-47
2021/05/22 04:00:42;;;;;;;0.00;0.00;;;15.80;72.40;;;;;;4189993;28;20052;-47
2021/05/22 04:03:05;;;;;;;0.00;0.00;;;15.80;72.40;;;;;;4191910;28;20516;-46
2021/05/22 04:05:27;;;;;;;0.00;0.00;;;15.80;72.40;;;;;;4192055;28;20480;-46
2021/05/22 04:07:49;;;;;;;0.00;0.00;;;15.80;72.50;;;;;;4191377;28;20447;-47
2021/05/22 04:10:12;;;;;;;0.10;0.10;;;15.80;72.60;;;;;;4191872;28;20052;-46
2021/05/22 04:12:34;;;;;;;0.08;0.08;;;15.80;72.60;;;;;;4190943;28;20574;-46
2021/05/22 04:14:56;;;;;;;0.00;0.00;;;15.80;72.70;;;;;;4191433;28;20568;-47
2021/05/22 04:17:17;;;;;;;0.00;0.00;;;15.80;72.80;;;;;;4191283;28;20143;-46
2021/05/22 04:19:39;;;;;;;;;;;15.80;72.80;;;;;;4192241;28;20060;-50
2021/05/22 04:22:01;;;;;;;0.00;0.00;;;15.80;73.00;;;;;;4191716;28;19931;-48
2021/05/22 04:24:22;;;;;;;0.00;0.00;;;15.80;73.00;;;;;;4191242;28;20482;-45
2021/05/22 04:26:44;;;;;;;0.20;0.20;;;15.70;73.10;;;;;;4191677;28;20427;-45
2021/05/22 04:29:06;;;;;;;0.00;0.00;;;15.70;73.10;;;;;;4190024;28;20600;-46
2021/05/22 04:31:28;;;;;;;0.00;0.00;;;15.70;73.20;;;;;;4191598;28;20459;-46
2021/05/22 04:33:50;;;;;;;0.00;0.00;;;15.80;73.30;;;;;;4191264;28;20135;-46
2021/05/22 04:36:11;;;;;;;0.00;0.00;;;15.70;73.20;;;;;;4190668;28;20562;-47
2021/05/22 04:38:33;;;;;;;0.00;0.00;;;15.70;73.40;;;;;;4191292;28;20135;-48
2021/05/22 04:40:54;;;;;;;0.00;0.00;;;15.70;73.40;;;;;;4191552;28;20070;-48
2021/05/22 04:43:16;;;;;;;;;;;15.70;73.50;;;;;;4191900;28;20049;-46
2021/05/22 04:45:38;;;;;;;0.00;0.00;;;15.70;73.50;;;;;;4191579;28;19927;-46
2021/05/22 04:48:00;;;;;;;0.00;0.00;;;15.70;73.60;;;;;;4191314;28;20055;-47
2021/05/22 04:50:21;;;;;;;0.00;0.00;;;15.70;73.60;;;;;;4191405;28;20048;-47
2021/05/22 04:52:46;;;;;;;0.80;0.80;;;15.70;73.60;;;;;;4190967;28;20101;-47
2021/05/22 04:55:09;;;;;;;0.00;0.00;;;15.70;73.80;;;;;;4190928;28;20052;-47
2021/05/22 04:57:30;;;;;;;0.98;0.98;;;15.70;73.90;;;;;;4191452;28;20051;-50
2021/05/22 04:59:52;;;;;;;0.30;0.30;;;15.70;73.90;;;;;;4191370;28;20052;-49
2021/05/22 05:02:15;;;;;;;0.45;0.45;;;15.70;73.90;;;;;;4191022;28;20506;-50
2021/05/22 05:04:36;;;;;;;0.22;0.22;;;15.70;74.00;;;;;;4190215;28;20185;-45
2021/05/22 05:06:58;;;;;;;;;;;15.70;74.00;;;;;;4191599;28;20473;-47
2021/05/22 05:09:20;;;;;;;0.00;0.00;;;15.70;74.10;;;;;;4174588;28;19976;-48
2021/05/22 05:11:42;;;;;;;0.03;0.03;;;15.60;74.00;;;;;;4174524;28;20076;-47
2021/05/22 05:14:03;;;;;;;;;;;15.70;74.10;;;;;;4190383;28;20478;-45
2021/05/22 05:16:25;;;;;;;;;;;15.70;74.20;;;;;;4175160;28;19943;-46
2021/05/22 05:18:47;;;;;;;;;;;15.60;74.10;;;;;;4174926;28;19920;-46
2021/05/22 05:21:08;;;;;;;0.00;0.00;;;15.60;74.20;;;;;;4187897;28;20362;-46
2021/05/22 05:23:30;;;;;;;0.00;0.00;;;15.60;74.20;;;;;;4191289;28;20110;-49
2021/05/22 05:25:52;;;;;;;0.00;0.00;;;15.60;74.20;;;;;;4183232;28;20049;-46
2021/05/22 05:28:14;;;;;;;0.57;0.57;;;15.60;74.20;;;;;;4177407;28;20063;-46
2021/05/22 05:30:35;;;;;;;0.10;0.10;;;15.60;74.30;;;;;;4177675;28;20136;-52
2021/05/22 05:32:57;;;;;;;0.00;0.00;;;15.60;74.50;;;;;;4177551;28;20056;-46
2021/05/22 05:35:19;;;;;;;0.00;0.00;;;15.60;74.40;;;;;;4177764;28;20559;-46
2021/05/22 05:37:41;;;;;;;0.00;0.00;;;15.60;74.60;;;;;;4177554;28;20132;-50
2021/05/22 05:40:02;;;;;;;0.00;0.00;;;15.70;75.60;;;;;;4177389;28;20059;-47
2021/05/22 05:42:24;;;;;;;0.00;0.00;;;15.70;75.20;;;;;;4176019;28;20055;-51
2021/05/22 05:44:46;;;;;;;0.00;0.00;;;15.70;74.90;;;;;;4179173;28;20132;-51
2021/05/22 05:47:07;;;;;;;0.30;0.30;;;15.70;74.80;;;;;;4193922;28;20044;-47
2021/05/22 05:49:29;;;;;;;0.00;0.00;;;15.70;74.80;;;;;;4183164;28;20048;-51
2021/05/22 05:51:51;;;;;;;0.00;0.00;;;15.70;74.60;;;;;;4193832;28;20075;-49
2021/05/22 05:54:13;;;;;;;8.30;0.55;;;15.70;74.70;;;;;;4193959;28;20051;-46
2021/05/22 05:56:34;;;;;;;;;;;15.70;74.70;;;;;;4194552;28;20106;-49
2021/05/22 05:58:55;;;;;;;0.00;0.00;;;15.70;74.80;;;;;;4193662;28;19928;-48
2021/05/22 06:01:16;;;;;;;;;;;15.60;74.70;;;;;;4192981;28;20597;-46
2021/05/22 06:03:38;;;;;;;0.00;0.00;;;15.60;74.70;;;;;;4193803;28;19924;-47
2021/05/22 06:06:00;;;;;;;0.00;0.00;;;15.60;74.80;;;;;;4193877;28;20072;-48
2021/05/22 06:08:23;;;;;;;0.00;0.00;;;15.60;74.80;;;;;;4193466;28;20076;-45
2021/05/22 06:10:46;;;;;;;0.00;0.00;;;15.60;74.90;;;;;;4193143;28;20056;-50
2021/05/22 06:13:08;;;;;;;0.00;0.00;;;15.60;74.80;;;;;;4192590;28;20544;-46
2021/05/22 06:15:32;;;;;;;0.00;0.00;;;15.60;74.80;;;;;;4193068;28;20486;-49
2021/05/22 06:17:54;;;;;;;0.75;0.75;;;15.60;74.90;;;;;;4193037;28;20048;-46
2021/05/22 06:20:16;;;;;;;0.00;0.00;;;15.60;74.80;;;;;;4192945;28;20054;-46
2021/05/22 06:22:38;;;;;;;0.00;0.00;;;15.60;74.70;;;;;;4193299;28;20554;-47
2021/05/22 06:25:01;;;;;;;0.00;0.00;;;15.60;74.80;;;;;;4192910;28;20121;-47
2021/05/22 06:27:23;;;;;;;0.00;0.00;;;15.60;74.80;;;;;;4193312;28;20106;-51
2021/05/22 06:29:44;;;;;;;0.00;0.00;;;15.60;74.80;;;;;;4193225;28;20053;-47
2021/05/22 06:32:06;;;;;;;0.00;0.00;;;15.60;74.90;;;;;;4193185;28;20049;-48
2021/05/22 06:34:28;;;;;;;0.00;0.00;;;15.60;74.90;;;;;;4193071;28;20134;-50
2021/05/22 06:36:51;;;;;;;0.00;0.00;;;15.60;75.00;;;;;;4192137;28;20051;-46
2021/05/22 06:39:12;;;;;;;0.00;0.00;;;15.60;75.90;;;;;;4193188;28;20051;-47
2021/05/22 06:41:35;;;;;;;0.00;0.00;;;15.60;75.10;;;;;;4193020;28;20062;-50
2021/05/22 06:43:56;;;;;;;0.00;0.00;;;15.60;75.10;;;;;;4192967;28;20067;-51
2021/05/22 06:48:58;;;;;;;0.45;0.45;;;15.60;75.10;;;;;;4192903;28;20422;-52
2021/05/22 06:51:20;;;;;;;0.00;0.00;;;15.50;75.00;;;;;;4193403;28;20131;-46
2021/05/22 06:53:42;;;;;;;0.00;0.00;;;15.50;74.90;;;;;;4192487;28;20891;-46
2021/05/22 06:56:03;;;;;;;;;;;15.50;74.90;;;;;;4188723;28;20080;-46
2021/05/22 06:58:26;;;;;;;0.00;0.00;;;15.50;75.00;;;;;;4176473;28;19924;-48
2021/05/22 07:00:48;;;;;;;0.00;0.00;;;15.50;75.00;;;;;;4192677;28;20079;-50
2021/05/22 07:03:10;;;;;;;0.00;0.00;;;15.50;75.00;;;;;;4193026;28;20153;-51
2021/05/22 07:05:31;;;;;;;0.00;0.00;;;15.50;75.10;;;;;;4190010;28;20121;-47
2021/05/22 07:07:53;;;;;;;0.00;0.00;;;15.50;75.00;;;;;;4185150;28;20047;-46
2021/05/22 07:10:15;;;;;;;0.00;0.00;;;15.60;75.10;;;;;;4183978;28;20414;-46
2021/05/22 07:12:37;;;;;;;0.00;0.00;;;15.50;75.10;;;;;;4192326;28;20751;-46
2021/05/22 07:14:59;;;;;;;0.00;0.00;;;15.50;75.10;;;;;;4192339;28;20045;-48
2021/05/22 07:17:21;;;;;;;0.00;0.00;;;15.50;75.10;;;;;;4192266;28;20484;-50
2021/05/22 07:19:43;;;;;;;0.08;0.08;;;15.50;75.20;;;;;;4192942;28;20040;-47
2021/05/22 07:22:05;;;;;;;0.00;0.00;;;15.50;75.20;;;;;;4191296;28;20064;-48
2021/05/22 07:24:27;;;;;;;0.08;0.08;;;15.50;75.30;;;;;;4190518;28;20410;-46
2021/05/22 07:26:48;;;;;;;0.93;0.90;;;15.50;75.30;;;;;;4192265;28;20379;-45
2021/05/22 07:29:11;;;;;;;0.00;0.00;;;15.50;75.30;;;;;;4192395;28;20052;-46
2021/05/22 07:31:33;;;;;;;0.00;0.00;;;15.50;75.30;;;;;;4192459;28;20058;-49
2021/05/22 07:33:55;;;;;;;0.00;0.00;;;15.50;75.40;;;;;;4192544;28;20491;-46
2021/05/22 07:36:18;;;;;;;0.32;0.32;;;15.50;75.40;;;;;;4175738;28;20554;-48
2021/05/22 07:38:41;;;;;;;0.00;0.00;;;15.50;75.50;;;;;;4175680;28;20550;-48
2021/05/22 07:41:03;;;;;;;0.00;0.00;;;15.50;75.60;;;;;;4183723;28;20189;-46
2021/05/22 07:43:25;;;;;;;0.00;0.00;;;15.50;75.50;;;;;;4190437;28;20078;-47
2021/05/22 07:45:46;;;;;;;0.00;0.00;;;15.50;75.60;;;;;;4191925;28;20127;-45
2021/05/22 07:48:09;;;;;;;0.00;0.00;;;15.50;75.60;;;;;;4191209;28;20117;-47
2021/05/22 07:50:31;;;;;;;0.00;0.00;;;15.50;75.70;;;;;;4191799;28;20079;-46
2021/05/22 07:52:52;;;;;;;19.80;0.88;;;15.50;76.70;;;;;;4188727;28;20520;-47
2021/05/22 07:55:14;;;;;;;0.10;0.10;;;15.50;76.20;;;;;;4190468;28;20560;-47
2021/05/22 07:57:36;;;;;;;0.00;0.00;;;15.50;76.40;;;;;;4177357;28;20053;-46
2021/05/22 07:59:58;;;;;;;0.00;0.00;;;15.50;76.50;;;;;;4191454;28;20366;-45
2021/05/22 08:02:20;;;;;;;0.00;0.00;;;15.50;76.70;;;;;;4181466;28;20048;-46
2021/05/22 08:04:43;;;;;;;0.13;0.13;;;15.50;76.80;;;;;;4190954;28;20135;-47
2021/05/22 08:07:05;;;;;;;0.00;0.00;;;15.50;77.10;;;;;;4191376;28;20052;-46
2021/05/22 08:09:27;;;;;;;0.00;0.00;;;15.50;77.10;;;;;;4190240;28;20530;-47
2021/05/22 08:11:49;;;;;;;0.30;0.30;;;15.50;77.30;;;;;;4191146;28;20052;-45
2021/05/22 08:14:11;;;;;;;0.00;0.00;;;15.40;77.40;;;;;;4191719;28;20141;-47
2021/05/22 08:16:34;;;;;;;0.00;0.00;;;15.50;77.50;;;;;;4191477;28;20143;-47
2021/05/22 08:18:56;;;;;;;0.30;0.30;;;15.50;77.50;;;;;;4190773;28;20125;-46
2021/05/22 08:21:22;;;;;;;0.00;0.00;;;15.50;77.70;;;;;;4191262;28;20048;-47
2021/05/22 08:23:44;;;;;;;1.00;0.95;;;15.50;77.80;;;;;;4190798;28;20619;-45
2021/05/22 08:26:05;;;;;;;0.40;0.40;;;15.50;78.00;;;;;;4184751;28;20047;-46
2021/05/22 08:28:47;;;;;;;;;;;15.50;78.00;;;;;;4191013;28;20052;-45
2021/05/22 08:31:08;;;;;;;0.00;0.00;;;15.50;78.10;;;;;;4191401;28;19931;-45
2021/05/22 08:33:30;;;;;;;4.63;1.88;;;15.40;78.10;;;;;;4191149;28;20114;-45
2021/05/22 08:35:52;;;;;;;;;;;15.40;78.10;;;;;;4190774;28;20048;-49
2021/05/22 08:38:14;;;;;;;0.00;0.00;;;15.40;78.20;;;;;;4190965;28;19925;-45
2021/05/22 08:40:36;;;;;;;0.00;0.00;;;15.40;78.30;;;;;;4190747;28;20056;-47
2021/05/22 08:42:57;;;;;;;0.00;0.00;;;15.40;78.40;;;;;;4190867;28;20105;-46
2021/05/22 08:45:22;;;;;;;0.63;0.63;;;15.40;78.50;;;;;;4190804;28;20052;-49
2021/05/22 08:47:45;;;;;;;1.17;0.73;;;15.40;78.60;;;;;;4191194;28;20047;-45
2021/05/22 08:50:09;;;;;;;0.10;0.10;;;15.40;78.70;;;;;;4191615;28;20592;-45
2021/05/22 08:52:31;;;;;;;0.10;0.10;;;15.40;78.80;;;;;;4187731;28;20053;-48
2021/05/22 08:54:54;;;;;;;1.35;0.98;;;15.40;78.80;;;;;;4190381;28;20890;-51
2021/05/22 08:57:16;;;;;;;0.00;0.00;;;15.50;78.80;;;;;;4189746;28;20048;-45
2021/05/22 08:59:41;;;;;;;0.00;0.00;;;15.40;78.80;;;;;;4190337;28;20055;-49
2021/05/22 09:02:03;;;;;;;0.00;0.00;;;15.40;79.00;;;;;;4188543;28;20053;-48
2021/05/22 09:04:25;;;;;;;0.00;0.00;;;15.50;79.10;;;;;;4171752;28;20049;-47
2021/05/22 09:07:02;;;;;;;0.00;0.00;;;15.40;79.10;;;;;;4178778;28;20078;-48
2021/05/22 09:09:38;;;;;;;0.00;0.00;;;15.40;80.30;;;;;;4189468;28;20135;-44
2021/05/22 09:12:00;;;;;;;0.10;0.10;;;15.40;79.60;;;;;;4190803;28;20530;-47
2021/05/22 09:14:43;;;;;;;0.00;0.00;;;15.40;79.70;;;;;;4186783;28;20056;-47
2021/05/22 09:17:07;;;;;;;0.17;0.17;;;15.50;80.00;;;;;;4190822;28;20085;-47
2021/05/22 09:19:29;;;;;;;0.10;0.10;;;15.50;80.10;;;;;;4190169;28;20052;-45
2021/05/22 09:21:51;;;;;;;0.10;0.08;;;15.50;80.30;;;;;;4190860;28;20052;-45
2021/05/22 09:24:13;;;;;;;0.00;0.00;;;15.40;80.50;;;;;;4174336;28;21618;-45
2021/05/22 09:26:34;;;;;;;0.00;0.00;;;15.50;81.50;;;;;;4182160;28;20052;-45
2021/05/22 09:28:59;;;;;;;0.00;0.00;;;15.50;80.70;;;;;;4190448;28;20051;-49
2021/05/22 09:31:23;;;;;;;0.00;0.00;;;15.50;81.70;;;;;;4190660;28;20080;-45
2021/05/22 09:33:46;;;;;;;3.40;0.93;;;15.50;81.00;;;;;;4190591;28;20045;-45
2021/05/22 09:36:11;;;;;;;0.05;0.05;;;15.60;81.20;;;;;;4190198;28;20044;-45
2021/05/22 09:38:38;;;;;;;0.25;0.25;;;15.50;81.20;;;;;;4189982;28;20505;-46
2021/05/22 09:40:59;;;;;;;0.00;0.00;;;15.60;81.40;;;;;;4188905;28;20080;-50
2021/05/22 09:43:21;;;;;;;0.40;0.40;;;15.60;81.70;;;;;;4190657;28;20135;-46
2021/05/22 09:45:45;;;;;;;0.30;0.30;;;15.60;81.90;;;;;;4190875;28;20055;-49
2021/05/22 09:48:25;;;;;;;0.00;0.00;;;15.60;82.20;;;;;;4190045;28;20049;-47
2021/05/22 09:50:48;;;;;;;0.00;0.00;;;15.60;82.40;;;;;;4190403;28;20048;-48
2021/05/22 09:53:24;;;;;;;0.00;0.00;;;15.60;82.80;;;;;;4188442;28;20052;-46
2021/05/22 09:56:24;;;;;;;0.00;0.00;;;15.70;82.70;;;;;;4186284;28;20064;-49
2021/05/22 09:58:49;;;;;;;0.00;0.00;;;15.60;82.80;;;;;;4189485;28;20415;-50
2021/05/22 10:01:13;;;;;;;0.10;0.10;;;15.60;83.00;;;;;;4186957;28;20056;-47
2021/05/22 10:03:35;;;;;;;0.05;0.05;;;15.70;83.20;;;;;;4189018;28;20530;-47
2021/05/22 10:05:57;;;;;;;0.10;0.10;;;15.60;83.20;;;;;;4189001;28;20106;-49
2021/05/22 10:08:20;;;;;;;0.00;0.00;;;15.60;83.60;;;;;;4189975;28;20055;-49
2021/05/22 10:10:45;;;;;;;0.08;0.08;;;15.70;83.70;;;;;;4190210;28;20062;-46
2021/05/22 10:13:09;;;;;;;0.15;0.15;;;15.70;84.10;;;;;;4185321;28;20557;-48
2021/05/22 10:15:31;;;;;;;0.00;0.00;;;15.70;84.20;;;;;;4193329;28;20135;-50
2021/05/22 10:17:54;;;;;;;1.05;1.00;;;15.70;84.20;;;;;;4192947;28;20493;-45
2021/05/22 10:20:16;;;;;;;0.00;0.00;;;15.70;84.00;;;;;;4192952;28;20127;-50
2021/05/22 10:22:40;;;;;;;0.10;0.10;;;15.80;84.40;;;;;;4192136;28;20155;-47
2021/05/22 10:25:02;;;;;;;0.10;0.10;;;15.80;84.30;;;;;;4177613;28;20071;-48
2021/05/22 10:27:24;;;;;;;0.00;0.00;;;15.80;84.60;;;;;;4176693;28;20047;-49
2021/05/22 10:29:46;;;;;;;0.00;0.00;;;15.80;84.60;;;;;;4180898;28;20060;-46
2021/05/22 10:32:18;;;;;;;0.00;0.00;;;15.90;84.60;;;;;;4180613;28;20101;-48
2021/05/22 10:34:41;;;;;;;0.13;0.13;;;15.90;84.40;;;;;;4192893;28;20601;-47
2021/05/22 10:37:03;;;;;;;0.00;0.00;;;15.90;84.70;;;;;;4191876;28;20048;-46
2021/05/22 10:39:36;;;;;;;0.00;0.00;;;15.90;84.60;;;;;;4193035;28;20145;-47
2021/05/22 10:41:58;;;;;;;0.00;0.00;;;15.90;84.50;;;;;;4176980;28;20049;-52
2021/05/22 10:44:27;;;;;;;0.00;0.00;;;15.90;84.30;;;;;;4176785;28;20548;-48
2021/05/22 10:47:09;;;;;;;0.00;0.00;;;15.90;84.40;;;;;;4178026;28;20083;-49
2021/05/22 10:49:53;;;;;;;0.00;0.00;;;15.90;84.50;;;;;;4192703;28;20052;-48
2021/05/22 10:52:17;;;;;;;0.28;0.28;;;15.90;84.60;;;;;;4192873;28;20135;-50
2021/05/22 10:54:57;;;;;;;0.22;0.22;;;15.90;84.80;;;;;;4192813;28;20052;-47
2021/05/22 10:57:19;;;;;;;0.00;0.00;;;15.80;84.80;;;;;;4192702;28;20063;-48
2021/05/22 10:59:42;;;;;;;0.45;0.45;;;15.80;85.00;;;;;;4191115;28;20044;-46
2021/05/22 11:02:23;;;;;;;0.00;0.00;;;15.80;85.20;;;;;;4192424;28;20059;-49
2021/05/22 11:04:45;;;;;;;1.02;0.88;;;15.80;85.30;;;;;;4191666;28;20045;-46
2021/05/22 11:07:21;;;;;;;0.03;0.03;;;15.80;85.40;;;;;;4181439;28;20831;-47
2021/05/22 11:09:54;;;;;;;0.05;0.05;;;15.80;86.40;;;;;;4189630;28;20564;-48
2021/05/22 11:12:45;;;;;;;0.00;0.00;;;15.80;85.70;;;;;;4185775;28;20471;-49
2021/05/22 11:15:22;;;;;;;1.35;1.02;;;15.90;85.70;;;;;;4191160;28;20048;-49
2021/05/22 11:17:50;;;;;;;0.00;0.00;;;15.90;85.90;;;;;;4189546;28;20059;-47
2021/05/22 11:20:18;;;;;;;0.55;0.55;;;15.90;85.90;;;;;;4178246;28;20051;-46
2021/05/22 11:23:00;;;;;;;0.25;0.25;;;15.90;85.90;;;;;;4192269;28;20133;-47
2021/05/22 11:25:23;;;;;;;0.13;0.13;;;15.90;85.80;;;;;;4191710;28;20044;-45
2021/05/22 11:27:59;;;;;;;0.10;0.10;;;15.90;85.80;;;;;;4192336;28;20056;-49
2021/05/22 11:30:44;;;;;;;0.28;0.28;;;15.90;86.00;;;;;;4191731;28;20056;-49
2021/05/22 11:33:08;;;;;;;0.20;0.20;;;15.90;86.10;;;;;;4181709;28;20040;-48
2021/05/22 11:35:40;;;;;;;0.00;0.00;;;15.90;85.90;;;;;;4192200;28;20392;-47
2021/05/22 11:38:29;;;;;;;0.40;0.35;;;15.90;86.00;;;;;;4192626;28;20541;-46
2021/05/22 11:40:54;;;;;;;0.00;0.00;;;15.90;86.00;;;;;;4192355;28;20426;-48
2021/05/22 11:43:23;;;;;;;0.20;0.20;;;15.90;85.90;;;;;;4191891;28;20051;-48
2021/05/22 11:45:46;;;;;;;5.68;1.45;;;15.90;86.10;;;;;;4191522;28;20056;-47
2021/05/22 11:48:21;;;;;;;0.00;0.00;;;16.00;86.20;;;;;;4192676;28;20075;-50
2021/05/22 11:50:43;;;;;;;0.00;0.00;;;16.00;86.20;;;;;;4192111;28;20040;-47
2021/05/22 11:53:13;;;;;;;6.30;1.88;;;16.00;87.00;;;;;;4192329;28;20145;-49
2021/05/22 11:55:35;;;;;;;0.52;0.52;;;16.00;86.00;;;;;;4191591;28;20052;-47
2021/05/22 11:58:03;;;;;;;0.00;0.00;;;16.00;86.10;;;;;;4192109;28;20373;-48
2021/05/22 12:00:27;;;;;;;0.00;0.00;;;16.10;86.10;;;;;;4191937;28;20553;-49
2021/05/22 12:02:48;;;;;;;0.38;0.38;;;16.10;86.10;;;;;;4191754;28;20040;-48
2021/05/22 12:05:11;;;;;;;0.70;0.70;;;16.10;85.90;;;;;;4191255;28;20044;-47
2021/05/22 12:07:46;;;;;;;0.38;0.38;;;16.10;85.80;;;;;;4192090;28;20060;-48
2021/05/22 12:10:12;;;;;;;0.85;0.85;;;16.10;85.60;;;;;;4191438;28;20052;-49
2021/05/22 12:12:34;;;;;;;1.88;1.77;;;16.20;85.90;;;;;;4190634;28;20157;-50
2021/05/22 12:14:56;;;;;;;0.00;0.00;;;16.20;85.60;;;;;;4191479;28;20070;-48
2021/05/22 12:17:20;;;;;;;0.05;0.05;;;16.10;85.60;;;;;;4191048;28;20102;-47
2021/05/22 12:19:45;;;;;;;0.10;0.10;;;16.10;85.60;;;;;;4175385;28;20053;-46
2021/05/22 12:22:07;;;;;;;0.03;0.03;;;16.10;85.70;;;;;;4190707;28;20491;-46
2021/05/22 12:24:29;;;;;;;0.00;0.00;;;16.10;85.90;;;;;;4190833;28;20045;-49
2021/05/22 12:26:53;;;;;;;0.20;0.20;;;16.10;86.00;;;;;;4191081;28;20548;-47
2021/05/22 12:29:16;;;;;;;0.43;0.43;;;16.10;86.30;;;;;;4191709;28;20044;-48
2021/05/22 12:31:37;;;;;;;0.00;0.00;;;16.20;86.30;;;;;;4191405;28;20059;-46
2021/05/22 12:34:00;;;;;;;;;;;16.20;86.20;;;;;;4190767;28;20074;-47